sensor_id;sensor_type;location;lat;lon;timestamp;P1;durP1;ratioP1;P2;durP2;ratioP2
10920;SDS011;5513;50.580;8.818;2022-10-31T00:01:38;8.77;;;6.70;;
10920;SDS011;5513;50.580;8.818;2022-10-31T00:04:07;7.63;;;6.33;;
10920;SDS011;5513;50.580;8.818;2022-10-31T00:06:36;6.30;;;5.50;;
10920;SDS011;5513;50.580;8.818;2022-10-31T00:09:04;10.10;;;6.87;;
10920;SDS011;5513;50.580;8.818;2022-10-31T00:11:33;6.47;;;5.53;;
10920;SDS011;5513;50.580;8.818;2022-10-31T00:14:03;11.80;;;6.90;;
10920;SDS011;5513;50.580;8.818;2022-10-31T00:16:32;9.00;;;6.73;;
10920;SDS011;5513;50.580;8.818;2022-10-31T00:19:01;9.93;;;7.23;;
10920;SDS011;5513;50.580;8.818;2022-10-31T00:21:31;11.83;;;7.37;;
10920;SDS011;5513;50.580;8.818;2022-10-31T00:24:00;17.50;;;8.13;;
10920;SDS011;5513;50.580;8.818;2022-10-31T00:26:30;9.13;;;7.20;;
10920;SDS011;5513;50.580;8.818;2022-10-31T00:28:59;10.60;;;7.83;;
10920;SDS011;5513;50.580;8.818;2022-10-31T00:31:29;11.10;;;7.50;;
10920;SDS011;5513;50.580;8.818;2022-10-31T00:33:57;13.33;;;8.33;;
10920;SDS011;5513;50.580;8.818;2022-10-31T00:36:26;12.00;;;7.83;;
10920;SDS011;5513;50.580;8.818;2022-10-31T00:38:54;10.10;;;7.60;;
10920;SDS011;5513;50.580;8.818;2022-10-31T00:41:23;9.37;;;7.13;;
10920;SDS011;5513;50.580;8.818;2022-10-31T00:43:52;13.53;;;7.87;;
10920;SDS011;5513;50.580;8.818;2022-10-31T00:46:21;14.30;;;8.23;;
10920;SDS011;5513;50.580;8.818;2022-10-31T00:48:51;11.37;;;7.63;;
10920;SDS011;5513;50.580;8.818;2022-10-31T00:51:19;10.47;;;8.00;;
10920;SDS011;5513;50.580;8.818;2022-10-31T00:53:49;13.00;;;7.80;;
10920;SDS011;5513;50.580;8.818;2022-10-31T00:56:18;11.03;;;7.90;;
10920;SDS011;5513;50.580;8.818;2022-10-31T00:58:46;12.13;;;7.60;;
10920;SDS011;5513;50.580;8.818;2022-10-31T01:01:15;10.90;;;8.00;;
10920;SDS011;5513;50.580;8.818;2022-10-31T01:03:44;14.70;;;8.37;;
10920;SDS011;5513;50.580;8.818;2022-10-31T01:06:14;16.13;;;9.10;;
10920;SDS011;5513;50.580;8.818;2022-10-31T01:08:42;19.33;;;8.50;;
10920;SDS011;5513;50.580;8.818;2022-10-31T01:11:11;13.17;;;7.87;;
10920;SDS011;5513;50.580;8.818;2022-10-31T01:13:41;14.17;;;7.77;;
10920;SDS011;5513;50.580;8.818;2022-10-31T01:16:11;13.67;;;8.70;;
10920;SDS011;5513;50.580;8.818;2022-10-31T01:18:41;19.60;;;9.17;;
10920;SDS011;5513;50.580;8.818;2022-10-31T01:21:11;11.77;;;8.30;;
10920;SDS011;5513;50.580;8.818;2022-10-31T01:23:44;14.03;;;8.17;;
10920;SDS011;5513;50.580;8.818;2022-10-31T01:26:14;12.57;;;7.33;;
10920;SDS011;5513;50.580;8.818;2022-10-31T01:28:45;12.83;;;7.13;;
10920;SDS011;5513;50.580;8.818;2022-10-31T01:31:14;10.30;;;7.00;;
10920;SDS011;5513;50.580;8.818;2022-10-31T01:33:45;13.13;;;7.03;;
10920;SDS011;5513;50.580;8.818;2022-10-31T01:36:16;12.33;;;7.17;;
10920;SDS011;5513;50.580;8.818;2022-10-31T01:38:48;9.53;;;7.03;;
10920;SDS011;5513;50.580;8.818;2022-10-31T01:41:18;17.10;;;7.03;;
10920;SDS011;5513;50.580;8.818;2022-10-31T01:43:50;10.57;;;7.10;;
10920;SDS011;5513;50.580;8.818;2022-10-31T01:46:21;11.63;;;6.87;;
10920;SDS011;5513;50.580;8.818;2022-10-31T01:48:53;9.70;;;6.17;;
10920;SDS011;5513;50.580;8.818;2022-10-31T01:51:23;10.00;;;6.37;;
10920;SDS011;5513;50.580;8.818;2022-10-31T01:53:58;7.80;;;5.90;;
10920;SDS011;5513;50.580;8.818;2022-10-31T01:56:29;9.00;;;6.07;;
10920;SDS011;5513;50.580;8.818;2022-10-31T01:58:59;13.83;;;7.60;;
10920;SDS011;5513;50.580;8.818;2022-10-31T02:01:32;18.33;;;7.10;;
10920;SDS011;5513;50.580;8.818;2022-10-31T02:04:02;11.73;;;7.20;;
10920;SDS011;5513;50.580;8.818;2022-10-31T02:06:33;13.90;;;6.83;;
10920;SDS011;5513;50.580;8.818;2022-10-31T02:09:07;12.40;;;7.40;;
10920;SDS011;5513;50.580;8.818;2022-10-31T02:11:36;15.03;;;8.47;;
10920;SDS011;5513;50.580;8.818;2022-10-31T02:14:04;10.97;;;7.10;;
10920;SDS011;5513;50.580;8.818;2022-10-31T02:16:33;12.47;;;8.43;;
10920;SDS011;5513;50.580;8.818;2022-10-31T02:19:01;11.53;;;8.10;;
10920;SDS011;5513;50.580;8.818;2022-10-31T02:21:33;15.60;;;8.37;;
10920;SDS011;5513;50.580;8.818;2022-10-31T02:27:29;14.17;;;8.90;;
10920;SDS011;5513;50.580;8.818;2022-10-31T02:30:18;14.03;;;8.03;;
10920;SDS011;5513;50.580;8.818;2022-10-31T02:32:55;10.60;;;7.47;;
10920;SDS011;5513;50.580;8.818;2022-10-31T02:35:38;12.57;;;7.70;;
10920;SDS011;5513;50.580;8.818;2022-10-31T02:38:14;12.00;;;7.67;;
10920;SDS011;5513;50.580;8.818;2022-10-31T02:40:54;11.70;;;7.57;;
10920;SDS011;5513;50.580;8.818;2022-10-31T02:43:31;16.37;;;9.43;;
10920;SDS011;5513;50.580;8.818;2022-10-31T02:46:08;28.37;;;9.80;;
10920;SDS011;5513;50.580;8.818;2022-10-31T02:48:45;14.47;;;9.37;;
10920;SDS011;5513;50.580;8.818;2022-10-31T02:51:16;14.03;;;8.00;;
10920;SDS011;5513;50.580;8.818;2022-10-31T02:53:46;12.47;;;7.80;;
10920;SDS011;5513;50.580;8.818;2022-10-31T02:56:15;27.43;;;9.07;;
10920;SDS011;5513;50.580;8.818;2022-10-31T02:58:47;26.67;;;9.37;;
10920;SDS011;5513;50.580;8.818;2022-10-31T03:04:31;12.60;;;8.00;;
10920;SDS011;5513;50.580;8.818;2022-10-31T03:07:11;15.73;;;7.87;;
10920;SDS011;5513;50.580;8.818;2022-10-31T03:09:51;23.30;;;9.37;;
10920;SDS011;5513;50.580;8.818;2022-10-31T03:12:30;20.13;;;9.10;;
10920;SDS011;5513;50.580;8.818;2022-10-31T03:15:14;19.27;;;9.20;;
10920;SDS011;5513;50.580;8.818;2022-10-31T03:17:50;19.50;;;8.77;;
10920;SDS011;5513;50.580;8.818;2022-10-31T03:20:28;18.93;;;8.57;;
10920;SDS011;5513;50.580;8.818;2022-10-31T03:23:02;12.27;;;8.63;;
10920;SDS011;5513;50.580;8.818;2022-10-31T03:25:34;18.23;;;8.63;;
10920;SDS011;5513;50.580;8.818;2022-10-31T03:28:04;16.10;;;8.90;;
10920;SDS011;5513;50.580;8.818;2022-10-31T03:30:36;14.60;;;8.30;;
10920;SDS011;5513;50.580;8.818;2022-10-31T03:33:09;17.27;;;9.63;;
10920;SDS011;5513;50.580;8.818;2022-10-31T03:35:42;15.03;;;9.33;;
10920;SDS011;5513;50.580;8.818;2022-10-31T03:38:14;15.37;;;8.53;;
10920;SDS011;5513;50.580;8.818;2022-10-31T03:40:43;16.53;;;9.07;;
10920;SDS011;5513;50.580;8.818;2022-10-31T03:43:16;78.73;;;10.67;;
10920;SDS011;5513;50.580;8.818;2022-10-31T03:45:51;26.87;;;9.00;;
10920;SDS011;5513;50.580;8.818;2022-10-31T03:48:22;12.70;;;7.17;;
10920;SDS011;5513;50.580;8.818;2022-10-31T03:50:56;18.17;;;8.30;;
10920;SDS011;5513;50.580;8.818;2022-10-31T03:53:30;13.70;;;7.93;;
10920;SDS011;5513;50.580;8.818;2022-10-31T03:56:02;11.20;;;7.07;;
10920;SDS011;5513;50.580;8.818;2022-10-31T03:58:39;25.87;;;8.40;;
10920;SDS011;5513;50.580;8.818;2022-10-31T04:01:14;14.83;;;7.50;;
10920;SDS011;5513;50.580;8.818;2022-10-31T04:03:46;26.90;;;8.00;;
10920;SDS011;5513;50.580;8.818;2022-10-31T04:06:17;11.90;;;7.70;;
10920;SDS011;5513;50.580;8.818;2022-10-31T04:08:51;16.40;;;8.00;;
10920;SDS011;5513;50.580;8.818;2022-10-31T04:11:25;14.20;;;8.93;;
10920;SDS011;5513;50.580;8.818;2022-10-31T04:13:58;14.00;;;8.73;;
10920;SDS011;5513;50.580;8.818;2022-10-31T04:16:29;16.97;;;9.80;;
10920;SDS011;5513;50.580;8.818;2022-10-31T04:18:59;17.63;;;9.60;;
10920;SDS011;5513;50.580;8.818;2022-10-31T04:21:30;29.50;;;9.73;;
10920;SDS011;5513;50.580;8.818;2022-10-31T04:23:58;27.50;;;9.30;;
10920;SDS011;5513;50.580;8.818;2022-10-31T04:26:28;19.37;;;10.00;;
10920;SDS011;5513;50.580;8.818;2022-10-31T04:28:59;27.10;;;10.00;;
10920;SDS011;5513;50.580;8.818;2022-10-31T04:31:30;26.00;;;9.80;;
10920;SDS011;5513;50.580;8.818;2022-10-31T04:33:59;29.33;;;9.93;;
10920;SDS011;5513;50.580;8.818;2022-10-31T04:36:29;16.60;;;9.20;;
10920;SDS011;5513;50.580;8.818;2022-10-31T04:38:57;32.83;;;9.53;;
10920;SDS011;5513;50.580;8.818;2022-10-31T04:41:26;18.67;;;9.87;;
10920;SDS011;5513;50.580;8.818;2022-10-31T04:43:58;13.07;;;8.73;;
10920;SDS011;5513;50.580;8.818;2022-10-31T04:46:27;22.80;;;9.17;;
10920;SDS011;5513;50.580;8.818;2022-10-31T04:48:55;24.73;;;9.60;;
10920;SDS011;5513;50.580;8.818;2022-10-31T04:51:24;19.97;;;9.60;;
10920;SDS011;5513;50.580;8.818;2022-10-31T04:53:55;30.97;;;11.00;;
10920;SDS011;5513;50.580;8.818;2022-10-31T04:56:23;19.73;;;9.67;;
10920;SDS011;5513;50.580;8.818;2022-10-31T04:58:51;54.80;;;11.30;;
10920;SDS011;5513;50.580;8.818;2022-10-31T05:01:21;22.00;;;11.07;;
10920;SDS011;5513;50.580;8.818;2022-10-31T05:03:49;20.53;;;10.97;;
10920;SDS011;5513;50.580;8.818;2022-10-31T05:06:20;29.23;;;11.43;;
10920;SDS011;5513;50.580;8.818;2022-10-31T05:08:48;29.10;;;11.77;;
10920;SDS011;5513;50.580;8.818;2022-10-31T05:11:18;19.90;;;9.13;;
10920;SDS011;5513;50.580;8.818;2022-10-31T05:13:47;20.20;;;9.33;;
10920;SDS011;5513;50.580;8.818;2022-10-31T05:16:16;22.57;;;9.27;;
10920;SDS011;5513;50.580;8.818;2022-10-31T05:18:44;37.63;;;10.33;;
10920;SDS011;5513;50.580;8.818;2022-10-31T05:21:13;26.20;;;9.80;;
10920;SDS011;5513;50.580;8.818;2022-10-31T05:23:47;14.57;;;9.17;;
10920;SDS011;5513;50.580;8.818;2022-10-31T05:26:16;18.80;;;9.90;;
10920;SDS011;5513;50.580;8.818;2022-10-31T05:28:46;30.93;;;9.37;;
10920;SDS011;5513;50.580;8.818;2022-10-31T05:31:14;17.63;;;9.33;;
10920;SDS011;5513;50.580;8.818;2022-10-31T05:33:47;32.53;;;9.73;;
10920;SDS011;5513;50.580;8.818;2022-10-31T05:36:21;45.77;;;9.90;;
10920;SDS011;5513;50.580;8.818;2022-10-31T05:38:51;29.80;;;9.13;;
10920;SDS011;5513;50.580;8.818;2022-10-31T05:41:23;22.37;;;8.90;;
10920;SDS011;5513;50.580;8.818;2022-10-31T05:43:51;31.87;;;10.47;;
10920;SDS011;5513;50.580;8.818;2022-10-31T05:46:22;21.90;;;9.63;;
10920;SDS011;5513;50.580;8.818;2022-10-31T05:48:51;14.60;;;9.23;;
10920;SDS011;5513;50.580;8.818;2022-10-31T05:51:24;32.33;;;10.30;;
10920;SDS011;5513;50.580;8.818;2022-10-31T05:53:52;21.27;;;9.20;;
10920;SDS011;5513;50.580;8.818;2022-10-31T05:56:21;15.03;;;9.17;;
10920;SDS011;5513;50.580;8.818;2022-10-31T05:58:52;13.97;;;8.80;;
10920;SDS011;5513;50.580;8.818;2022-10-31T06:01:20;15.23;;;9.53;;
10920;SDS011;5513;50.580;8.818;2022-10-31T06:03:49;18.13;;;10.57;;
10920;SDS011;5513;50.580;8.818;2022-10-31T06:06:17;25.27;;;10.83;;
10920;SDS011;5513;50.580;8.818;2022-10-31T06:08:46;15.53;;;9.63;;
10920;SDS011;5513;50.580;8.818;2022-10-31T06:11:15;17.67;;;9.50;;
10920;SDS011;5513;50.580;8.818;2022-10-31T06:13:45;38.33;;;10.47;;
10920;SDS011;5513;50.580;8.818;2022-10-31T06:16:14;22.27;;;9.87;;
10920;SDS011;5513;50.580;8.818;2022-10-31T06:18:45;24.77;;;9.27;;
10920;SDS011;5513;50.580;8.818;2022-10-31T06:21:13;23.77;;;10.33;;
10920;SDS011;5513;50.580;8.818;2022-10-31T06:23:44;11.27;;;8.97;;
10920;SDS011;5513;50.580;8.818;2022-10-31T06:26:13;26.23;;;10.40;;
10920;SDS011;5513;50.580;8.818;2022-10-31T06:28:42;15.90;;;9.90;;
10920;SDS011;5513;50.580;8.818;2022-10-31T06:31:12;30.20;;;9.80;;
10920;SDS011;5513;50.580;8.818;2022-10-31T06:33:40;24.53;;;10.47;;
10920;SDS011;5513;50.580;8.818;2022-10-31T06:36:09;12.73;;;8.97;;
10920;SDS011;5513;50.580;8.818;2022-10-31T06:38:38;25.63;;;9.23;;
10920;SDS011;5513;50.580;8.818;2022-10-31T06:41:07;12.97;;;9.33;;
10920;SDS011;5513;50.580;8.818;2022-10-31T06:43:35;10.37;;;8.83;;
10920;SDS011;5513;50.580;8.818;2022-10-31T06:46:04;11.83;;;9.07;;
10920;SDS011;5513;50.580;8.818;2022-10-31T06:48:34;13.20;;;9.27;;
10920;SDS011;5513;50.580;8.818;2022-10-31T06:51:03;9.73;;;7.97;;
10920;SDS011;5513;50.580;8.818;2022-10-31T06:53:32;10.93;;;8.10;;
10920;SDS011;5513;50.580;8.818;2022-10-31T06:56:00;11.00;;;8.60;;
10920;SDS011;5513;50.580;8.818;2022-10-31T06:58:29;11.70;;;8.50;;
10920;SDS011;5513;50.580;8.818;2022-10-31T07:00:58;12.40;;;8.87;;
10920;SDS011;5513;50.580;8.818;2022-10-31T07:03:27;13.27;;;9.17;;
10920;SDS011;5513;50.580;8.818;2022-10-31T07:05:57;16.83;;;11.10;;
10920;SDS011;5513;50.580;8.818;2022-10-31T07:08:26;17.23;;;13.77;;
10920;SDS011;5513;50.580;8.818;2022-10-31T07:10:55;13.90;;;9.63;;
10920;SDS011;5513;50.580;8.818;2022-10-31T07:13:24;11.77;;;9.13;;
10920;SDS011;5513;50.580;8.818;2022-10-31T07:15:54;12.03;;;8.83;;
10920;SDS011;5513;50.580;8.818;2022-10-31T07:18:27;10.90;;;8.20;;
10920;SDS011;5513;50.580;8.818;2022-10-31T07:20:58;12.50;;;8.53;;
10920;SDS011;5513;50.580;8.818;2022-10-31T07:23:27;12.57;;;8.30;;
10920;SDS011;5513;50.580;8.818;2022-10-31T07:25:57;10.80;;;8.70;;
10920;SDS011;5513;50.580;8.818;2022-10-31T07:28:26;9.93;;;8.27;;
10920;SDS011;5513;50.580;8.818;2022-10-31T07:30:56;9.63;;;8.40;;
10920;SDS011;5513;50.580;8.818;2022-10-31T07:33:25;9.27;;;8.07;;
10920;SDS011;5513;50.580;8.818;2022-10-31T07:35:54;9.93;;;8.00;;
10920;SDS011;5513;50.580;8.818;2022-10-31T07:38:24;11.97;;;9.27;;
10920;SDS011;5513;50.580;8.818;2022-10-31T07:40:52;8.57;;;7.10;;
10920;SDS011;5513;50.580;8.818;2022-10-31T07:43:20;11.37;;;7.73;;
10920;SDS011;5513;50.580;8.818;2022-10-31T07:45:49;9.40;;;7.87;;
10920;SDS011;5513;50.580;8.818;2022-10-31T07:48:18;7.77;;;6.93;;
10920;SDS011;5513;50.580;8.818;2022-10-31T07:50:47;9.20;;;7.80;;
10920;SDS011;5513;50.580;8.818;2022-10-31T07:53:15;9.80;;;8.37;;
10920;SDS011;5513;50.580;8.818;2022-10-31T07:55:46;11.97;;;9.00;;
10920;SDS011;5513;50.580;8.818;2022-10-31T07:58:15;11.67;;;8.50;;
10920;SDS011;5513;50.580;8.818;2022-10-31T08:00:45;14.57;;;8.87;;
10920;SDS011;5513;50.580;8.818;2022-10-31T08:03:15;10.50;;;9.07;;
10920;SDS011;5513;50.580;8.818;2022-10-31T08:05:45;14.27;;;10.20;;
10920;SDS011;5513;50.580;8.818;2022-10-31T08:08:14;12.30;;;9.60;;
10920;SDS011;5513;50.580;8.818;2022-10-31T08:10:43;12.47;;;9.53;;
10920;SDS011;5513;50.580;8.818;2022-10-31T08:13:14;11.43;;;9.50;;
10920;SDS011;5513;50.580;8.818;2022-10-31T08:15:42;11.90;;;9.40;;
10920;SDS011;5513;50.580;8.818;2022-10-31T08:18:16;12.30;;;9.33;;
10920;SDS011;5513;50.580;8.818;2022-10-31T08:20:44;11.47;;;9.23;;
10920;SDS011;5513;50.580;8.818;2022-10-31T08:23:14;13.50;;;9.83;;
10920;SDS011;5513;50.580;8.818;2022-10-31T08:25:42;12.30;;;9.17;;
10920;SDS011;5513;50.580;8.818;2022-10-31T08:28:15;12.27;;;9.80;;
10920;SDS011;5513;50.580;8.818;2022-10-31T08:30:43;14.60;;;9.50;;
10920;SDS011;5513;50.580;8.818;2022-10-31T08:33:13;17.10;;;10.17;;
10920;SDS011;5513;50.580;8.818;2022-10-31T08:35:43;12.87;;;10.53;;
10920;SDS011;5513;50.580;8.818;2022-10-31T08:38:11;13.63;;;10.43;;
10920;SDS011;5513;50.580;8.818;2022-10-31T08:40:42;13.17;;;10.47;;
10920;SDS011;5513;50.580;8.818;2022-10-31T08:43:17;11.60;;;10.27;;
10920;SDS011;5513;50.580;8.818;2022-10-31T08:45:47;15.00;;;11.33;;
10920;SDS011;5513;50.580;8.818;2022-10-31T08:48:16;13.83;;;11.10;;
10920;SDS011;5513;50.580;8.818;2022-10-31T08:50:45;13.33;;;10.60;;
10920;SDS011;5513;50.580;8.818;2022-10-31T08:53:14;13.63;;;11.10;;
10920;SDS011;5513;50.580;8.818;2022-10-31T08:55:44;12.13;;;10.57;;
10920;SDS011;5513;50.580;8.818;2022-10-31T08:58:14;13.23;;;10.93;;
10920;SDS011;5513;50.580;8.818;2022-10-31T09:00:46;13.90;;;11.13;;
10920;SDS011;5513;50.580;8.818;2022-10-31T09:03:17;12.63;;;11.03;;
10920;SDS011;5513;50.580;8.818;2022-10-31T09:05:47;12.37;;;10.60;;
10920;SDS011;5513;50.580;8.818;2022-10-31T09:08:17;14.53;;;10.47;;
10920;SDS011;5513;50.580;8.818;2022-10-31T09:10:45;12.67;;;10.60;;
10920;SDS011;5513;50.580;8.818;2022-10-31T09:13:15;12.20;;;9.73;;
10920;SDS011;5513;50.580;8.818;2022-10-31T09:15:48;10.47;;;9.33;;
10920;SDS011;5513;50.580;8.818;2022-10-31T09:18:17;11.10;;;9.30;;
10920;SDS011;5513;50.580;8.818;2022-10-31T09:20:47;11.50;;;9.50;;
10920;SDS011;5513;50.580;8.818;2022-10-31T09:23:17;10.47;;;9.13;;
10920;SDS011;5513;50.580;8.818;2022-10-31T09:25:48;11.37;;;9.27;;
10920;SDS011;5513;50.580;8.818;2022-10-31T09:28:20;10.83;;;9.40;;
10920;SDS011;5513;50.580;8.818;2022-10-31T09:30:51;11.90;;;9.93;;
10920;SDS011;5513;50.580;8.818;2022-10-31T09:33:21;12.03;;;9.20;;
10920;SDS011;5513;50.580;8.818;2022-10-31T09:35:49;11.17;;;9.07;;
10920;SDS011;5513;50.580;8.818;2022-10-31T09:38:18;10.10;;;8.10;;
10920;SDS011;5513;50.580;8.818;2022-10-31T09:40:52;11.73;;;8.87;;
10920;SDS011;5513;50.580;8.818;2022-10-31T09:43:31;11.23;;;8.87;;
10920;SDS011;5513;50.580;8.818;2022-10-31T09:46:11;10.83;;;8.33;;
10920;SDS011;5513;50.580;8.818;2022-10-31T09:48:50;11.13;;;8.30;;
10920;SDS011;5513;50.580;8.818;2022-10-31T09:51:30;11.00;;;7.63;;
10920;SDS011;5513;50.580;8.818;2022-10-31T09:54:04;9.90;;;8.17;;
10920;SDS011;5513;50.580;8.818;2022-10-31T09:56:39;10.90;;;8.57;;
10920;SDS011;5513;50.580;8.818;2022-10-31T09:59:12;10.73;;;8.17;;
10920;SDS011;5513;50.580;8.818;2022-10-31T10:01:53;11.20;;;8.60;;
10920;SDS011;5513;50.580;8.818;2022-10-31T10:04:33;11.43;;;7.87;;
10920;SDS011;5513;50.580;8.818;2022-10-31T10:07:10;10.03;;;7.47;;
10920;SDS011;5513;50.580;8.818;2022-10-31T10:09:44;9.57;;;7.10;;
10920;SDS011;5513;50.580;8.818;2022-10-31T10:12:16;13.43;;;8.43;;
10920;SDS011;5513;50.580;8.818;2022-10-31T10:14:56;10.00;;;7.20;;
10920;SDS011;5513;50.580;8.818;2022-10-31T10:17:37;10.77;;;7.97;;
10920;SDS011;5513;50.580;8.818;2022-10-31T10:20:21;7.90;;;7.03;;
10920;SDS011;5513;50.580;8.818;2022-10-31T10:22:58;8.67;;;7.07;;
10920;SDS011;5513;50.580;8.818;2022-10-31T10:25:37;9.40;;;6.90;;
10920;SDS011;5513;50.580;8.818;2022-10-31T10:28:10;10.03;;;7.33;;
10920;SDS011;5513;50.580;8.818;2022-10-31T10:30:49;12.00;;;6.97;;
10920;SDS011;5513;50.580;8.818;2022-10-31T10:33:22;12.13;;;7.73;;
10920;SDS011;5513;50.580;8.818;2022-10-31T10:35:57;10.77;;;8.00;;
10920;SDS011;5513;50.580;8.818;2022-10-31T10:38:33;10.70;;;7.70;;
10920;SDS011;5513;50.580;8.818;2022-10-31T10:41:09;11.07;;;7.40;;
10920;SDS011;5513;50.580;8.818;2022-10-31T10:43:40;9.87;;;7.67;;
10920;SDS011;5513;50.580;8.818;2022-10-31T10:46:19;10.37;;;7.80;;
10920;SDS011;5513;50.580;8.818;2022-10-31T10:49:14;10.13;;;6.93;;
10920;SDS011;5513;50.580;8.818;2022-10-31T10:51:46;9.20;;;7.27;;
10920;SDS011;5513;50.580;8.818;2022-10-31T10:54:42;13.07;;;7.33;;
10920;SDS011;5513;50.580;8.818;2022-10-31T11:00:15;11.90;;;7.33;;
10920;SDS011;5513;50.580;8.818;2022-10-31T11:02:47;12.20;;;8.23;;
10920;SDS011;5513;50.580;8.818;2022-10-31T11:05:20;11.07;;;7.70;;
10920;SDS011;5513;50.580;8.818;2022-10-31T11:07:51;12.03;;;8.13;;
10920;SDS011;5513;50.580;8.818;2022-10-31T11:10:20;11.30;;;8.70;;
10920;SDS011;5513;50.580;8.818;2022-10-31T11:13:00;11.77;;;9.53;;
10920;SDS011;5513;50.580;8.818;2022-10-31T11:15:31;13.87;;;9.40;;
10920;SDS011;5513;50.580;8.818;2022-10-31T11:18:12;13.90;;;8.60;;
10920;SDS011;5513;50.580;8.818;2022-10-31T11:20:50;11.67;;;8.83;;
10920;SDS011;5513;50.580;8.818;2022-10-31T11:23:24;14.23;;;8.90;;
10920;SDS011;5513;50.580;8.818;2022-10-31T11:25:56;12.27;;;9.33;;
10920;SDS011;5513;50.580;8.818;2022-10-31T11:28:28;15.57;;;9.23;;
10920;SDS011;5513;50.580;8.818;2022-10-31T11:30:59;13.07;;;9.20;;
10920;SDS011;5513;50.580;8.818;2022-10-31T11:33:31;10.43;;;8.37;;
10920;SDS011;5513;50.580;8.818;2022-10-31T11:36:02;11.40;;;8.17;;
10920;SDS011;5513;50.580;8.818;2022-10-31T11:38:42;11.00;;;7.73;;
10920;SDS011;5513;50.580;8.818;2022-10-31T11:41:13;11.27;;;8.03;;
10920;SDS011;5513;50.580;8.818;2022-10-31T11:43:48;12.63;;;7.70;;
10920;SDS011;5513;50.580;8.818;2022-10-31T11:46:21;11.50;;;7.43;;
10920;SDS011;5513;50.580;8.818;2022-10-31T11:49:01;14.37;;;8.50;;
10920;SDS011;5513;50.580;8.818;2022-10-31T11:51:31;13.90;;;7.50;;
10920;SDS011;5513;50.580;8.818;2022-10-31T11:54:02;11.27;;;7.20;;
10920;SDS011;5513;50.580;8.818;2022-10-31T11:56:38;11.83;;;7.87;;
10920;SDS011;5513;50.580;8.818;2022-10-31T11:59:14;15.50;;;7.90;;
10920;SDS011;5513;50.580;8.818;2022-10-31T12:01:47;14.53;;;7.80;;
10920;SDS011;5513;50.580;8.818;2022-10-31T12:04:18;13.20;;;7.90;;
10920;SDS011;5513;50.580;8.818;2022-10-31T12:06:57;11.43;;;7.47;;
10920;SDS011;5513;50.580;8.818;2022-10-31T12:09:29;11.00;;;7.27;;
10920;SDS011;5513;50.580;8.818;2022-10-31T12:15:15;9.83;;;6.87;;
10920;SDS011;5513;50.580;8.818;2022-10-31T12:18:08;12.77;;;8.03;;
10920;SDS011;5513;50.580;8.818;2022-10-31T12:21:00;11.73;;;7.00;;
10920;SDS011;5513;50.580;8.818;2022-10-31T12:23:38;10.53;;;6.70;;
10920;SDS011;5513;50.580;8.818;2022-10-31T12:26:16;10.17;;;6.70;;
10920;SDS011;5513;50.580;8.818;2022-10-31T12:29:02;12.40;;;7.43;;
10920;SDS011;5513;50.580;8.818;2022-10-31T12:31:43;14.50;;;6.97;;
10920;SDS011;5513;50.580;8.818;2022-10-31T12:34:33;12.67;;;7.37;;
10920;SDS011;5513;50.580;8.818;2022-10-31T12:37:26;12.33;;;6.53;;
10920;SDS011;5513;50.580;8.818;2022-10-31T12:40:21;10.70;;;6.83;;
10920;SDS011;5513;50.580;8.818;2022-10-31T12:43:02;15.13;;;7.63;;
10920;SDS011;5513;50.580;8.818;2022-10-31T12:45:49;13.03;;;7.33;;
10920;SDS011;5513;50.580;8.818;2022-10-31T12:48:26;11.50;;;7.30;;
10920;SDS011;5513;50.580;8.818;2022-10-31T12:51:09;12.70;;;8.00;;
10920;SDS011;5513;50.580;8.818;2022-10-31T12:53:55;12.67;;;7.30;;
10920;SDS011;5513;50.580;8.818;2022-10-31T12:56:38;15.20;;;7.70;;
10920;SDS011;5513;50.580;8.818;2022-10-31T12:59:21;14.53;;;8.13;;
10920;SDS011;5513;50.580;8.818;2022-10-31T13:01:59;11.57;;;7.73;;
10920;SDS011;5513;50.580;8.818;2022-10-31T13:04:38;15.13;;;8.37;;
10920;SDS011;5513;50.580;8.818;2022-10-31T13:07:24;10.38;;;7.00;;
10920;SDS011;5513;50.580;8.818;2022-10-31T13:10:00;10.83;;;7.87;;
10920;SDS011;5513;50.580;8.818;2022-10-31T13:12:33;13.02;;;7.55;;
10920;SDS011;5513;50.580;8.818;2022-10-31T13:15:05;13.40;;;7.63;;
10920;SDS011;5513;50.580;8.818;2022-10-31T13:17:44;14.27;;;8.10;;
10920;SDS011;5513;50.580;8.818;2022-10-31T13:20:19;12.88;;;7.38;;
10920;SDS011;5513;50.580;8.818;2022-10-31T13:22:52;17.83;;;7.82;;
10920;SDS011;5513;50.580;8.818;2022-10-31T13:25:27;12.90;;;7.50;;
10920;SDS011;5513;50.580;8.818;2022-10-31T13:28:02;12.45;;;6.80;;
10920;SDS011;5513;50.580;8.818;2022-10-31T13:30:37;12.02;;;7.07;;
10920;SDS011;5513;50.580;8.818;2022-10-31T13:33:10;10.48;;;6.28;;
10920;SDS011;5513;50.580;8.818;2022-10-31T13:35:44;11.15;;;6.75;;
10920;SDS011;5513;50.580;8.818;2022-10-31T13:38:21;15.77;;;6.53;;
10920;SDS011;5513;50.580;8.818;2022-10-31T13:41:04;13.68;;;7.00;;
10920;SDS011;5513;50.580;8.818;2022-10-31T13:43:47;11.65;;;6.70;;
10920;SDS011;5513;50.580;8.818;2022-10-31T13:46:34;11.35;;;6.93;;
10920;SDS011;5513;50.580;8.818;2022-10-31T13:49:26;14.45;;;7.07;;
10920;SDS011;5513;50.580;8.818;2022-10-31T13:54:53;13.95;;;7.10;;
10920;SDS011;5513;50.580;8.818;2022-10-31T13:57:29;14.65;;;7.13;;
10920;SDS011;5513;50.580;8.818;2022-10-31T14:00:03;12.07;;;6.53;;
10920;SDS011;5513;50.580;8.818;2022-10-31T14:02:43;11.23;;;7.15;;
10920;SDS011;5513;50.580;8.818;2022-10-31T14:05:19;9.82;;;6.03;;
10920;SDS011;5513;50.580;8.818;2022-10-31T14:07:51;10.18;;;5.30;;
10920;SDS011;5513;50.580;8.818;2022-10-31T14:10:22;13.07;;;5.07;;
10920;SDS011;5513;50.580;8.818;2022-10-31T14:13:03;11.02;;;5.47;;
10920;SDS011;5513;50.580;8.818;2022-10-31T14:15:36;14.20;;;6.00;;
10920;SDS011;5513;50.580;8.818;2022-10-31T14:18:17;8.23;;;5.22;;
10920;SDS011;5513;50.580;8.818;2022-10-31T14:20:52;11.93;;;5.10;;
10920;SDS011;5513;50.580;8.818;2022-10-31T14:23:34;9.23;;;5.20;;
10920;SDS011;5513;50.580;8.818;2022-10-31T14:26:16;11.20;;;4.93;;
10920;SDS011;5513;50.580;8.818;2022-10-31T14:28:46;11.18;;;4.95;;
10920;SDS011;5513;50.580;8.818;2022-10-31T14:31:32;12.63;;;5.30;;
10920;SDS011;5513;50.580;8.818;2022-10-31T14:34:06;8.32;;;4.80;;
10920;SDS011;5513;50.580;8.818;2022-10-31T14:36:50;10.52;;;5.13;;
10920;SDS011;5513;50.580;8.818;2022-10-31T14:39:42;10.75;;;5.22;;
10920;SDS011;5513;50.580;8.818;2022-10-31T14:42:23;9.88;;;5.13;;
10920;SDS011;5513;50.580;8.818;2022-10-31T14:48:18;11.03;;;4.67;;
10920;SDS011;5513;50.580;8.818;2022-10-31T14:51:08;12.03;;;4.90;;
10920;SDS011;5513;50.580;8.818;2022-10-31T14:53:42;9.13;;;4.37;;
10920;SDS011;5513;50.580;8.818;2022-10-31T14:56:16;10.73;;;5.20;;
10920;SDS011;5513;50.580;8.818;2022-10-31T14:58:54;13.05;;;5.10;;
10920;SDS011;5513;50.580;8.818;2022-10-31T15:01:31;11.97;;;4.93;;
10920;SDS011;5513;50.580;8.818;2022-10-31T15:04:07;7.40;;;5.07;;
10920;SDS011;5513;50.580;8.818;2022-10-31T15:06:51;6.50;;;5.03;;
10920;SDS011;5513;50.580;8.818;2022-10-31T15:09:26;15.23;;;5.20;;
10920;SDS011;5513;50.580;8.818;2022-10-31T15:11:59;11.37;;;4.60;;
10920;SDS011;5513;50.580;8.818;2022-10-31T15:14:29;12.57;;;5.13;;
10920;SDS011;5513;50.580;8.818;2022-10-31T15:17:02;14.40;;;5.30;;
10920;SDS011;5513;50.580;8.818;2022-10-31T15:19:32;12.57;;;5.20;;
10920;SDS011;5513;50.580;8.818;2022-10-31T15:22:03;9.03;;;5.20;;
10920;SDS011;5513;50.580;8.818;2022-10-31T15:24:34;9.10;;;5.20;;
10920;SDS011;5513;50.580;8.818;2022-10-31T15:27:05;13.07;;;5.30;;
10920;SDS011;5513;50.580;8.818;2022-10-31T15:29:48;11.87;;;5.17;;
10920;SDS011;5513;50.580;8.818;2022-10-31T15:32:23;10.83;;;5.77;;
10920;SDS011;5513;50.580;8.818;2022-10-31T15:34:54;14.27;;;5.70;;
10920;SDS011;5513;50.580;8.818;2022-10-31T15:37:24;11.83;;;6.03;;
10920;SDS011;5513;50.580;8.818;2022-10-31T15:39:55;13.10;;;5.13;;
10920;SDS011;5513;50.580;8.818;2022-10-31T15:42:24;8.97;;;5.07;;